Time;durP1;ratioP1;P1;durP2;ratioP2;P2;SDS_P1;SDS_P2;PMS_P1;PMS_P2;Temp;Humidity;BMP_temperature;BMP_pressure;BME280_temperature;BME280_humidity;BME280_pressure;Samples;Min_cycle;Max_cycle;Signal;HPM_P1;HPM_P2
2023/05/09 00:01:45;;;;;;;2.60;1.58;;;;;;;;;;5099786;28;20223;-63
2023/05/09 00:04:14;;;;;;;1.80;1.50;;;;;;;;;;5099553;28;20307;-65
2023/05/09 00:06:43;;;;;;;1.73;1.40;;;;;;;;;;5098679;28;20203;-64
2023/05/09 00:09:11;;;;;;;1.67;1.58;;;;;;;;;;5099069;28;20204;-64
2023/05/09 00:11:39;;;;;;;1.67;1.58;;;;;;;;;;5099864;28;20485;-64
2023/05/09 00:14:07;;;;;;;1.40;1.20;;;;;;;;;;5099495;28;20261;-63
2023/05/09 00:16:35;;;;;;;1.73;1.60;;;;;;;;;;5099141;28;20216;-64
2023/05/09 00:19:03;;;;;;;1.70;1.60;;;;;;;;;;5099537;28;20204;-63
2023/05/09 00:21:31;;;;;;;1.40;1.30;;;;;;;;;;5099488;28;20227;-64
2023/05/09 00:24:00;;;;;;;2.00;1.40;;;;;;;;;;5099391;28;20257;-65
2023/05/09 00:26:27;;;;;;;1.70;1.45;;;;;;;;;;5099281;28;20243;-64
2023/05/09 00:28:55;;;;;;;1.58;1.45;;;;;;;;;;5099360;28;20203;-65
2023/05/09 00:31:22;;;;;;;1.60;1.50;;;;;;;;;;5099081;28;20261;-66
2023/05/09 00:33:50;;;;;;;2.03;1.40;;;;;;;;;;5099388;28;20286;-64
2023/05/09 00:36:17;;;;;;;1.83;1.65;;;;;;;;;;5099106;28;20214;-65
2023/05/09 00:38:46;;;;;;;1.55;1.35;;;;;;;;;;5099391;28;20218;-64
2023/05/09 00:41:14;;;;;;;1.60;1.50;;;;;;;;;;5099453;28;20555;-63
2023/05/09 00:43:42;;;;;;;1.40;1.30;;;;;;;;;;5098182;28;20203;-65
2023/05/09 00:46:10;;;;;;;1.40;1.30;;;;;;;;;;5099107;28;20203;-63
2023/05/09 00:48:38;;;;;;;1.60;1.50;;;;;;;;;;5098924;28;20253;-63
2023/05/09 00:51:06;;;;;;;1.60;1.50;;;;;;;;;;5098911;28;20211;-64
2023/05/09 00:53:34;;;;;;;1.48;1.38;;;;;;;;;;5099001;28;20265;-66
2023/05/09 00:56:01;;;;;;;1.50;1.40;;;;;;;;;;5099153;28;20479;-64
2023/05/09 00:58:30;;;;;;;1.38;1.27;;;;;;;;;;5098890;28;20543;-65
2023/05/09 01:01:00;;;;;;;1.77;1.50;;;;;;;;;;5098635;28;20227;-65
2023/05/09 01:03:28;;;;;;;1.70;1.60;;;;;;;;;;5098388;28;20263;-65
2023/05/09 01:05:56;;;;;;;1.60;1.50;;;;;;;;;;5098550;28;20208;-66
2023/05/09 01:08:31;;;;;;;1.55;1.45;;;;;;;;;;5098689;28;20542;-66
2023/05/09 01:11:02;;;;;;;1.63;1.48;;;;;;;;;;5098779;28;20246;-65
2023/05/09 01:13:34;;;;;;;1.45;1.35;;;;;;;;;;5098823;28;20286;-66
2023/05/09 01:16:09;;;;;;;1.50;1.40;;;;;;;;;;5098296;28;20212;-65
2023/05/09 01:18:41;;;;;;;1.55;1.45;;;;;;;;;;5098081;28;20213;-66
2023/05/09 01:21:10;;;;;;;1.60;1.50;;;;;;;;;;5097948;28;20314;-65
2023/05/09 01:23:48;;;;;;;1.58;1.40;;;;;;;;;;5098574;28;20645;-65
2023/05/09 01:26:20;;;;;;;1.30;1.20;;;;;;;;;;5097905;28;20235;-65
2023/05/09 01:29:00;;;;;;;1.50;1.40;;;;;;;;;;5098200;28;20204;-66
2023/05/09 01:31:30;;;;;;;1.48;1.38;;;;;;;;;;5098449;28;20199;-65
2023/05/09 01:34:00;;;;;;;1.40;1.30;;;;;;;;;;5097969;28;20235;-65
2023/05/09 01:36:31;;;;;;;1.60;1.50;;;;;;;;;;5098203;28;20204;-64
2023/05/09 01:39:00;;;;;;;1.65;1.55;;;;;;;;;;5098082;28;20211;-64
2023/05/09 01:41:31;;;;;;;1.65;1.50;;;;;;;;;;5098051;28;20223;-64
2023/05/09 01:43:59;;;;;;;1.50;1.40;;;;;;;;;;5097862;28;20299;-64
2023/05/09 01:46:29;;;;;;;1.55;1.45;;;;;;;;;;5098114;28;20203;-64
2023/05/09 01:48:58;;;;;;;1.70;1.60;;;;;;;;;;5098164;28;20207;-64
2023/05/09 01:51:25;;;;;;;1.58;1.48;;;;;;;;;;5097833;28;20210;-64
2023/05/09 01:53:53;;;;;;;1.48;1.38;;;;;;;;;;5098030;28;20243;-64
2023/05/09 01:56:22;;;;;;;1.95;1.73;;;;;;;;;;5101772;28;20246;-64
2023/05/09 01:58:50;;;;;;;1.48;1.38;;;;;;;;;;5101642;28;20584;-65
2023/05/09 02:01:19;;;;;;;1.90;1.80;;;;;;;;;;5101738;28;20277;-64
2023/05/09 02:03:49;;;;;;;1.50;1.40;;;;;;;;;;5102574;28;20610;-64
2023/05/09 02:06:18;;;;;;;1.60;1.50;;;;;;;;;;5102354;28;20209;-64
2023/05/09 02:08:45;;;;;;;1.63;1.40;;;;;;;;;;5102055;28;20310;-64
2023/05/09 02:11:13;;;;;;;1.63;1.52;;;;;;;;;;5102018;28;20299;-64
2023/05/09 02:13:41;;;;;;;1.50;1.40;;;;;;;;;;5101742;28;20253;-64
2023/05/09 02:16:09;;;;;;;1.40;1.30;;;;;;;;;;5102448;28;20571;-64
2023/05/09 02:18:37;;;;;;;1.95;1.85;;;;;;;;;;5101681;28;20269;-64
2023/05/09 02:21:07;;;;;;;1.55;1.45;;;;;;;;;;5101158;28;20214;-64
2023/05/09 02:23:34;;;;;;;1.42;1.33;;;;;;;;;;5102201;28;20210;-64
2023/05/09 02:26:02;;;;;;;1.70;1.60;;;;;;;;;;5101525;28;20242;-64
2023/05/09 02:28:31;;;;;;;1.60;1.50;;;;;;;;;;5101555;28;20231;-64
2023/05/09 02:30:59;;;;;;;1.60;1.50;;;;;;;;;;5101524;28;20203;-64
2023/05/09 02:33:27;;;;;;;1.60;1.50;;;;;;;;;;5101876;28;20271;-64
2023/05/09 02:35:54;;;;;;;1.80;1.70;;;;;;;;;;5101704;28;20203;-64
2023/05/09 02:38:26;;;;;;;1.73;1.63;;;;;;;;;;5101431;28;20294;-64
2023/05/09 02:40:54;;;;;;;1.60;1.50;;;;;;;;;;5101589;28;20272;-64
2023/05/09 02:43:21;;;;;;;1.60;1.50;;;;;;;;;;5101227;28;20587;-64
2023/05/09 02:45:48;;;;;;;1.73;1.63;;;;;;;;;;5101223;28;20302;-65
2023/05/09 02:48:16;;;;;;;1.70;1.60;;;;;;;;;;5101326;28;20621;-64
2023/05/09 02:50:44;;;;;;;1.65;1.55;;;;;;;;;;5101120;28;20200;-64
2023/05/09 02:53:12;;;;;;;1.63;1.52;;;;;;;;;;5101014;28;20199;-64
2023/05/09 02:55:41;;;;;;;1.70;1.60;;;;;;;;;;5100854;28;20666;-64
2023/05/09 02:58:09;;;;;;;1.80;1.70;;;;;;;;;;5101217;28;20256;-64
2023/05/09 03:00:36;;;;;;;1.50;1.40;;;;;;;;;;5101470;28;20214;-64
2023/05/09 03:03:04;;;;;;;1.77;1.67;;;;;;;;;;5101033;28;20231;-66
2023/05/09 03:05:31;;;;;;;1.70;1.60;;;;;;;;;;5100391;28;20207;-64
2023/05/09 03:07:59;;;;;;;1.60;1.50;;;;;;;;;;5100134;28;20211;-64
2023/05/09 03:10:27;;;;;;;1.60;1.50;;;;;;;;;;5100838;28;20286;-63
2023/05/09 03:12:56;;;;;;;1.70;1.60;;;;;;;;;;5100647;28;20265;-64
2023/05/09 03:15:23;;;;;;;1.70;1.60;;;;;;;;;;5100872;28;20230;-64
2023/05/09 03:17:51;;;;;;;1.70;1.60;;;;;;;;;;5100236;28;20229;-64
2023/05/09 03:20:18;;;;;;;1.80;1.70;;;;;;;;;;5100468;28;20204;-64
2023/05/09 03:22:47;;;;;;;1.83;1.73;;;;;;;;;;5099881;28;20504;-64
2023/05/09 03:25:15;;;;;;;1.70;1.60;;;;;;;;;;5100113;28;20239;-64
2023/05/09 03:27:43;;;;;;;1.98;1.80;;;;;;;;;;5100304;28;20207;-64
2023/05/09 03:30:12;;;;;;;2.03;1.92;;;;;;;;;;5100440;28;20204;-64
2023/05/09 03:32:40;;;;;;;1.60;1.50;;;;;;;;;;5100009;28;20239;-64
2023/05/09 03:35:08;;;;;;;1.83;1.73;;;;;;;;;;5100135;28;20234;-64
2023/05/09 03:37:36;;;;;;;1.80;1.70;;;;;;;;;;5099735;28;20230;-64
2023/05/09 03:40:03;;;;;;;2.00;1.90;;;;;;;;;;5100345;28;20482;-64
2023/05/09 03:42:31;;;;;;;1.70;1.60;;;;;;;;;;5100136;28;20219;-64
2023/05/09 03:44:58;;;;;;;1.50;1.40;;;;;;;;;;5099784;28;20204;-64
2023/05/09 03:47:27;;;;;;;1.52;1.42;;;;;;;;;;5099424;28;20560;-64
2023/05/09 03:49:55;;;;;;;1.70;1.60;;;;;;;;;;5099933;28;20294;-63
2023/05/09 03:52:22;;;;;;;1.92;1.83;;;;;;;;;;5099706;28;20243;-63
2023/05/09 03:54:49;;;;;;;1.60;1.50;;;;;;;;;;5099395;28;20203;-64
2023/05/09 03:57:17;;;;;;;1.70;1.60;;;;;;;;;;5099192;28;20600;-64
2023/05/09 03:59:44;;;;;;;1.80;1.70;;;;;;;;;;5099377;28;20313;-64
2023/05/09 04:02:12;;;;;;;1.70;1.60;;;;;;;;;;5098585;28;20284;-64
2023/05/09 04:04:41;;;;;;;1.75;1.65;;;;;;;;;;5099336;28;20203;-64
2023/05/09 04:07:09;;;;;;;1.88;1.77;;;;;;;;;;5099190;28;20211;-64
2023/05/09 04:09:36;;;;;;;1.70;1.60;;;;;;;;;;5099464;28;20214;-64
2023/05/09 04:12:04;;;;;;;1.80;1.70;;;;;;;;;;5098904;28;20290;-64
2023/05/09 04:14:31;;;;;;;1.77;1.67;;;;;;;;;;5099033;28;20286;-64
2023/05/09 04:16:59;;;;;;;1.80;1.67;;;;;;;;;;5098506;28;20199;-64
2023/05/09 04:19:26;;;;;;;1.88;1.77;;;;;;;;;;5099636;28;20269;-64
2023/05/09 04:21:55;;;;;;;1.75;1.65;;;;;;;;;;5098746;28;20227;-64
2023/05/09 04:24:23;;;;;;;1.65;1.55;;;;;;;;;;5098619;28;20587;-64
2023/05/09 04:26:51;;;;;;;1.63;1.52;;;;;;;;;;5098513;28;20239;-64
2023/05/09 04:29:19;;;;;;;1.70;1.60;;;;;;;;;;5097936;28;20261;-64
2023/05/09 04:31:47;;;;;;;1.85;1.73;;;;;;;;;;5097734;28;20621;-64
2023/05/09 04:34:14;;;;;;;1.80;1.70;;;;;;;;;;5098437;28;20235;-63
2023/05/09 04:36:42;;;;;;;1.80;1.70;;;;;;;;;;5098480;28;20218;-64
2023/05/09 04:39:11;;;;;;;1.80;1.70;;;;;;;;;;5097944;28;20212;-63
2023/05/09 04:41:42;;;;;;;2.20;2.00;;;;;;;;;;5096858;28;20200;-64
2023/05/09 04:44:10;;;;;;;2.08;1.98;;;;;;;;;;5096547;28;20231;-64
2023/05/09 04:46:37;;;;;;;1.90;1.80;;;;;;;;;;5097235;28;20234;-64
2023/05/09 04:49:05;;;;;;;2.08;1.98;;;;;;;;;;5096876;28;20298;-64
2023/05/09 04:51:32;;;;;;;1.90;1.80;;;;;;;;;;5096486;28;20211;-64
2023/05/09 04:54:00;;;;;;;1.70;1.60;;;;;;;;;;5096179;28;20291;-64
2023/05/09 04:56:29;;;;;;;1.90;1.80;;;;;;;;;;5096500;28;20242;-64
2023/05/09 04:58:57;;;;;;;1.90;1.80;;;;;;;;;;5097181;28;20694;-64
2023/05/09 05:01:25;;;;;;;1.90;1.80;;;;;;;;;;5095584;28;20303;-64
2023/05/09 05:03:52;;;;;;;1.90;1.80;;;;;;;;;;5095568;28;20382;-64
2023/05/09 05:06:20;;;;;;;1.83;1.73;;;;;;;;;;5095310;28;20294;-64
2023/05/09 05:08:47;;;;;;;2.22;1.85;;;;;;;;;;5094976;28;20304;-65
2023/05/09 05:11:17;;;;;;;2.05;1.95;;;;;;;;;;5094302;28;20439;-64
2023/05/09 05:13:46;;;;;;;2.20;2.10;;;;;;;;;;5096283;28;20199;-64
2023/05/09 05:16:13;;;;;;;1.98;1.88;;;;;;;;;;5116134;28;20249;-64
2023/05/09 05:18:40;;;;;;;1.90;1.70;;;;;;;;;;5116130;28;20207;-64
2023/05/09 05:21:08;;;;;;;1.90;1.80;;;;;;;;;;5116131;28;20211;-64
2023/05/09 05:23:36;;;;;;;2.00;1.90;;;;;;;;;;5116029;28;20230;-64
2023/05/09 05:26:04;;;;;;;1.90;1.80;;;;;;;;;;5131905;27;20328;-65
2023/05/09 05:28:31;;;;;;;1.85;1.75;;;;;;;;;;5135945;27;20246;-64
2023/05/09 05:31:00;;;;;;;2.00;1.90;;;;;;;;;;5135188;27;20705;-64
2023/05/09 05:33:27;;;;;;;2.00;1.90;;;;;;;;;;5135528;27;20205;-64
2023/05/09 05:35:55;;;;;;;2.08;1.98;;;;;;;;;;5137035;27;20301;-64
2023/05/09 05:38:23;;;;;;;1.80;1.70;;;;;;;;;;5137162;27;20281;-64
2023/05/09 05:40:50;;;;;;;1.80;1.70;;;;;;;;;;5136624;27;20198;-65
2023/05/09 05:43:17;;;;;;;2.00;1.90;;;;;;;;;;5135871;27;20226;-65
2023/05/09 05:45:45;;;;;;;1.80;1.70;;;;;;;;;;5135003;27;20202;-64
2023/05/09 05:48:14;;;;;;;1.98;1.88;;;;;;;;;;5135529;28;20598;-64
2023/05/09 05:50:41;;;;;;;1.92;1.83;;;;;;;;;;5136006;28;20198;-64
2023/05/09 05:53:09;;;;;;;2.00;1.80;;;;;;;;;;5135174;28;20257;-65
2023/05/09 05:55:36;;;;;;;1.90;1.80;;;;;;;;;;5135940;28;20608;-64
2023/05/09 05:58:04;;;;;;;2.00;1.90;;;;;;;;;;5135328;28;20208;-65
2023/05/09 06:00:31;;;;;;;1.80;1.70;;;;;;;;;;5135113;28;20289;-65
2023/05/09 06:02:59;;;;;;;1.98;1.80;;;;;;;;;;5135448;28;20672;-65
2023/05/09 06:05:28;;;;;;;2.38;2.28;;;;;;;;;;5135291;28;20252;-65
2023/05/09 06:07:56;;;;;;;2.67;1.98;;;;;;;;;;5136264;28;20202;-65
2023/05/09 06:10:23;;;;;;;2.05;1.95;;;;;;;;;;5135400;28;20630;-64
2023/05/09 06:12:50;;;;;;;2.00;1.90;;;;;;;;;;5135919;28;20198;-65
2023/05/09 06:15:18;;;;;;;2.15;1.80;;;;;;;;;;5136621;28;20297;-65
2023/05/09 06:17:46;;;;;;;2.55;1.90;;;;;;;;;;5136348;28;20206;-65
2023/05/09 06:20:14;;;;;;;2.00;1.90;;;;;;;;;;5136364;28;20202;-63
2023/05/09 06:22:42;;;;;;;2.25;2.00;;;;;;;;;;5135851;28;20615;-63
2023/05/09 06:25:10;;;;;;;2.25;2.10;;;;;;;;;;5135253;28;20480;-63
2023/05/09 06:27:37;;;;;;;2.40;2.20;;;;;;;;;;5135514;28;20282;-64
2023/05/09 06:30:05;;;;;;;2.40;2.20;;;;;;;;;;5136087;28;20293;-63
2023/05/09 06:32:33;;;;;;;2.38;2.17;;;;;;;;;;5135832;28;20259;-64
2023/05/09 06:35:00;;;;;;;2.92;2.63;;;;;;;;;;5135922;28;20213;-64
2023/05/09 06:37:28;;;;;;;3.08;2.60;;;;;;;;;;5137497;28;20532;-63
2023/05/09 06:39:57;;;;;;;3.55;2.80;;;;;;;;;;5136074;27;20198;-63
2023/05/09 06:42:24;;;;;;;3.05;2.85;;;;;;;;;;5139389;27;20296;-64
2023/05/09 06:44:51;;;;;;;3.20;2.90;;;;;;;;;;5139729;27;20585;-63
2023/05/09 06:47:19;;;;;;;3.78;3.47;;;;;;;;;;5140041;27;20202;-63
2023/05/09 06:49:46;;;;;;;3.28;2.97;;;;;;;;;;5139745;27;20233;-66
2023/05/09 06:52:14;;;;;;;3.10;2.90;;;;;;;;;;5140319;27;20285;-63
2023/05/09 06:54:42;;;;;;;3.28;3.05;;;;;;;;;;5139612;27;20209;-63
2023/05/09 06:57:10;;;;;;;3.30;3.00;;;;;;;;;;5139867;27;20213;-63
2023/05/09 06:59:38;;;;;;;3.20;2.92;;;;;;;;;;5139656;27;20202;-64
2023/05/09 07:02:06;;;;;;;3.45;3.15;;;;;;;;;;5139971;27;20689;-63
2023/05/09 07:04:33;;;;;;;3.72;3.42;;;;;;;;;;5139077;27;20233;-63
2023/05/09 07:07:01;;;;;;;3.17;2.97;;;;;;;;;;5139623;27;20213;-64
2023/05/09 07:09:28;;;;;;;3.60;3.30;;;;;;;;;;5139079;27;20197;-63
2023/05/09 07:11:56;;;;;;;3.55;2.92;;;;;;;;;;5139589;27;20649;-64
2023/05/09 07:14:25;;;;;;;3.05;2.85;;;;;;;;;;5140606;27;20198;-63
2023/05/09 07:16:53;;;;;;;3.25;2.92;;;;;;;;;;5139513;27;20208;-64
2023/05/09 07:19:20;;;;;;;3.03;2.83;;;;;;;;;;5139250;27;20593;-63
2023/05/09 07:21:48;;;;;;;3.65;2.92;;;;;;;;;;5138838;27;20302;-63
2023/05/09 07:24:15;;;;;;;3.45;3.15;;;;;;;;;;5139313;27;20257;-64
2023/05/09 07:26:43;;;;;;;4.07;3.78;;;;;;;;;;5138960;27;20275;-63
2023/05/09 07:29:10;;;;;;;4.07;3.53;;;;;;;;;;5139083;27;20289;-65
2023/05/09 07:31:39;;;;;;;4.15;3.40;;;;;;;;;;5139183;27;20210;-64
2023/05/09 07:34:07;;;;;;;3.30;3.00;;;;;;;;;;5139274;27;20666;-64
2023/05/09 07:36:36;;;;;;;3.10;2.90;;;;;;;;;;5138746;27;20208;-64
2023/05/09 07:39:03;;;;;;;3.83;3.30;;;;;;;;;;5139317;27;20285;-67
2023/05/09 07:41:31;;;;;;;3.85;3.45;;;;;;;;;;5138280;27;20214;-64
2023/05/09 07:43:59;;;;;;;4.75;3.50;;;;;;;;;;5138938;27;20226;-63
2023/05/09 07:46:26;;;;;;;3.60;3.30;;;;;;;;;;5139003;27;20206;-63
2023/05/09 07:48:55;;;;;;;3.50;3.20;;;;;;;;;;5137945;27;20578;-64
2023/05/09 07:51:23;;;;;;;5.30;3.40;;;;;;;;;;5138797;27;20576;-63
2023/05/09 07:53:50;;;;;;;3.38;3.17;;;;;;;;;;5138673;27;20195;-63
2023/05/09 07:56:18;;;;;;;3.78;3.47;;;;;;;;;;5137977;27;20564;-63
2023/05/09 07:58:45;;;;;;;3.40;3.10;;;;;;;;;;5139021;27;20203;-63
2023/05/09 08:01:12;;;;;;;3.42;3.00;;;;;;;;;;5137458;27;20297;-63
2023/05/09 08:03:40;;;;;;;4.78;3.13;;;;;;;;;;5138482;27;20224;-64
2023/05/09 08:06:09;;;;;;;3.67;3.30;;;;;;;;;;5137801;27;20752;-64
2023/05/09 08:08:36;;;;;;;3.63;3.25;;;;;;;;;;5138553;27;20313;-63
2023/05/09 08:11:05;;;;;;;4.18;3.00;;;;;;;;;;5138686;27;20784;-63
2023/05/09 08:13:33;;;;;;;3.20;3.00;;;;;;;;;;5138440;27;20234;-63
2023/05/09 08:16:01;;;;;;;3.13;2.80;;;;;;;;;;5138084;27;20224;-63
2023/05/09 08:18:29;;;;;;;4.18;3.40;;;;;;;;;;5138494;27;20207;-64
2023/05/09 08:20:57;;;;;;;3.75;3.10;;;;;;;;;;5138583;27;20202;-63
2023/05/09 08:23:26;;;;;;;3.35;3.05;;;;;;;;;;5137468;27;20628;-63
2023/05/09 08:25:54;;;;;;;5.28;3.63;;;;;;;;;;5136818;27;20325;-63
2023/05/09 08:28:22;;;;;;;3.90;3.42;;;;;;;;;;5138130;27;20206;-63
2023/05/09 08:30:50;;;;;;;3.85;3.03;;;;;;;;;;5137432;27;20206;-64
2023/05/09 08:33:18;;;;;;;3.30;3.00;;;;;;;;;;5137508;27;20502;-63
2023/05/09 08:35:45;;;;;;;3.03;2.72;;;;;;;;;;5138799;27;20202;-63
2023/05/09 08:38:13;;;;;;;5.28;2.90;;;;;;;;;;5137917;27;20230;-63
2023/05/09 08:40:42;;;;;;;3.25;3.00;;;;;;;;;;5136649;27;20569;-63
2023/05/09 08:43:10;;;;;;;3.53;2.90;;;;;;;;;;5136401;27;20226;-64
2023/05/09 08:45:42;;;;;;;3.05;2.70;;;;;;;;;;5136890;27;20265;-63
2023/05/09 08:48:10;;;;;;;3.45;3.15;;;;;;;;;;5136747;27;20206;-63
2023/05/09 08:50:39;;;;;;;4.53;3.00;;;;;;;;;;5137431;27;20241;-64
2023/05/09 08:53:07;;;;;;;4.40;2.90;;;;;;;;;;5137264;27;20578;-64
2023/05/09 08:55:35;;;;;;;3.10;2.90;;;;;;;;;;5137498;27;20541;-64
2023/05/09 08:58:05;;;;;;;3.35;3.05;;;;;;;;;;5138096;27;20489;-64
2023/05/09 09:00:32;;;;;;;3.60;3.30;;;;;;;;;;5137006;27;20214;-65
2023/05/09 09:03:01;;;;;;;3.05;2.80;;;;;;;;;;5137093;27;20568;-65
2023/05/09 09:05:31;;;;;;;3.35;3.05;;;;;;;;;;5135993;27;20206;-64
2023/05/09 09:07:59;;;;;;;3.45;3.10;;;;;;;;;;5136233;27;20234;-67
2023/05/09 09:10:27;;;;;;;3.28;3.05;;;;;;;;;;5136855;27;20202;-65
2023/05/09 09:12:57;;;;;;;4.47;3.25;;;;;;;;;;5136285;27;20245;-64
2023/05/09 09:15:26;;;;;;;4.15;3.15;;;;;;;;;;5136705;27;20241;-65
2023/05/09 09:17:56;;;;;;;4.93;2.80;;;;;;;;;;5133961;27;20208;-66
2023/05/09 09:20:24;;;;;;;3.03;2.78;;;;;;;;;;5136822;27;20617;-63
2023/05/09 09:22:52;;;;;;;3.83;3.00;;;;;;;;;;5136420;27;20241;-63
2023/05/09 09:25:20;;;;;;;4.75;3.25;;;;;;;;;;5136770;27;20821;-64
2023/05/09 09:27:47;;;;;;;3.42;3.13;;;;;;;;;;5136450;27;20664;-61
2023/05/09 09:30:15;;;;;;;3.03;2.72;;;;;;;;;;5136553;27;20214;-64
2023/05/09 09:32:44;;;;;;;2.92;2.67;;;;;;;;;;5136257;27;20651;-64
2023/05/09 09:35:12;;;;;;;3.50;3.20;;;;;;;;;;5135469;27;20198;-63
2023/05/09 09:37:42;;;;;;;2.95;2.75;;;;;;;;;;5135257;27;20301;-64
2023/05/09 09:40:11;;;;;;;3.33;3.03;;;;;;;;;;5135311;27;20202;-64
2023/05/09 09:42:42;;;;;;;3.40;3.10;;;;;;;;;;5134497;27;20198;-64
2023/05/09 09:45:11;;;;;;;3.15;2.88;;;;;;;;;;5135731;27;20307;-64
2023/05/09 09:47:38;;;;;;;3.50;3.00;;;;;;;;;;5135757;28;20202;-67
2023/05/09 09:50:12;;;;;;;3.50;2.95;;;;;;;;;;5136761;28;20205;-64
2023/05/09 09:52:43;;;;;;;3.22;3.00;;;;;;;;;;5135855;28;20229;-64
2023/05/09 09:55:11;;;;;;;3.25;2.90;;;;;;;;;;5135784;28;20234;-64
2023/05/09 09:57:42;;;;;;;3.00;2.72;;;;;;;;;;5136413;28;20255;-64
2023/05/09 10:00:10;;;;;;;3.88;3.08;;;;;;;;;;5135597;28;20217;-64
2023/05/09 10:02:48;;;;;;;3.83;3.25;;;;;;;;;;5135986;28;20206;-64
2023/05/09 10:05:20;;;;;;;3.55;3.25;;;;;;;;;;5136274;28;20707;-64
2023/05/09 10:07:51;;;;;;;3.30;3.00;;;;;;;;;;5135645;28;20214;-64
2023/05/09 10:10:19;;;;;;;3.83;3.38;;;;;;;;;;5134799;28;20209;-64
2023/05/09 10:12:47;;;;;;;3.13;2.70;;;;;;;;;;5135921;28;20685;-64
2023/05/09 10:15:17;;;;;;;3.20;2.70;;;;;;;;;;5136885;27;20217;-64
2023/05/09 10:17:44;;;;;;;3.08;2.88;;;;;;;;;;5139985;27;20227;-65
2023/05/09 10:20:12;;;;;;;3.17;2.88;;;;;;;;;;5140178;27;20480;-64
2023/05/09 10:22:41;;;;;;;3.28;2.97;;;;;;;;;;5138976;27;20213;-64
2023/05/09 10:25:12;;;;;;;3.03;2.67;;;;;;;;;;5139038;27;20238;-65
2023/05/09 10:27:42;;;;;;;3.38;3.08;;;;;;;;;;5139602;27;20209;-63
2023/05/09 10:30:10;;;;;;;3.20;2.90;;;;;;;;;;5139462;27;20194;-63
2023/05/09 10:32:42;;;;;;;4.05;3.10;;;;;;;;;;5138474;27;20242;-64
2023/05/09 10:35:12;;;;;;;3.20;3.00;;;;;;;;;;5138704;27;20198;-63
2023/05/09 10:37:40;;;;;;;3.38;3.13;;;;;;;;;;5138980;27;20206;-63
2023/05/09 10:40:13;;;;;;;3.13;2.80;;;;;;;;;;5138450;27;20214;-63
2023/05/09 10:42:41;;;;;;;5.05;3.42;;;;;;;;;;5139132;27;20214;-63
2023/05/09 10:45:09;;;;;;;3.40;3.00;;;;;;;;;;5138117;27;20236;-63
2023/05/09 10:47:37;;;;;;;3.55;3.00;;;;;;;;;;5138742;27;20231;-63
2023/05/09 10:50:05;;;;;;;3.25;2.88;;;;;;;;;;5138910;27;20206;-63
2023/05/09 10:52:33;;;;;;;3.33;2.78;;;;;;;;;;5139442;27;20658;-63
2023/05/09 10:55:01;;;;;;;3.13;2.83;;;;;;;;;;5139355;27;20203;-63
2023/05/09 10:57:31;;;;;;;4.28;3.00;;;;;;;;;;5138856;27;20206;-63
2023/05/09 11:00:00;;;;;;;3.03;2.80;;;;;;;;;;5138786;27;20356;-63
2023/05/09 11:02:29;;;;;;;3.38;2.90;;;;;;;;;;5138542;27;20289;-63
2023/05/09 11:05:15;;;;;;;3.45;2.92;;;;;;;;;;5140239;27;20249;-63
2023/05/09 11:07:43;;;;;;;2.75;2.55;;;;;;;;;;5139100;27;20645;-63
2023/05/09 11:10:11;;;;;;;2.90;2.70;;;;;;;;;;5138391;27;20206;-63
2023/05/09 11:12:55;;;;;;;2.97;2.70;;;;;;;;;;5139399;27;20206;-63
2023/05/09 11:15:23;;;;;;;3.13;2.90;;;;;;;;;;5138714;27;20263;-63
2023/05/09 11:18:05;;;;;;;3.95;2.92;;;;;;;;;;5138324;27;20213;-63
2023/05/09 11:20:35;;;;;;;2.83;2.50;;;;;;;;;;5138660;27;20198;-64
2023/05/09 11:23:04;;;;;;;2.85;2.45;;;;;;;;;;5138770;27;20202;-63
2023/05/09 11:25:31;;;;;;;3.78;2.45;;;;;;;;;;5137367;27;20274;-63
2023/05/09 11:27:59;;;;;;;4.05;2.70;;;;;;;;;;5137163;27;20273;-62
2023/05/09 11:30:36;;;;;;;3.78;2.55;;;;;;;;;;5138297;27;20202;-62
2023/05/09 11:33:05;;;;;;;3.15;2.60;;;;;;;;;;5138440;27;20202;-62
2023/05/09 11:35:33;;;;;;;3.47;2.55;;;;;;;;;;5138421;27;20252;-63
2023/05/09 11:38:01;;;;;;;2.80;2.50;;;;;;;;;;5138585;27;20570;-64
2023/05/09 11:40:29;;;;;;;2.70;2.50;;;;;;;;;;5138324;27;20201;-65
2023/05/09 11:42:57;;;;;;;3.30;2.50;;;;;;;;;;5137549;27;20207;-63
2023/05/09 11:45:25;;;;;;;2.90;2.70;;;;;;;;;;5137664;27;20225;-64
2023/05/09 11:47:55;;;;;;;2.72;2.53;;;;;;;;;;5137552;27;20701;-63
2023/05/09 11:50:23;;;;;;;2.92;2.72;;;;;;;;;;5137122;27;20210;-63
2023/05/09 11:52:50;;;;;;;3.03;2.75;;;;;;;;;;5137829;27;20231;-63
2023/05/09 11:55:20;;;;;;;3.45;2.58;;;;;;;;;;5137742;27;20206;-63
2023/05/09 11:57:49;;;;;;;3.92;2.88;;;;;;;;;;5137737;27;20301;-63
2023/05/09 12:00:17;;;;;;;2.78;2.47;;;;;;;;;;5137614;27;20206;-63
2023/05/09 12:02:45;;;;;;;3.63;2.40;;;;;;;;;;5137713;27;20755;-63
2023/05/09 12:05:15;;;;;;;2.72;2.40;;;;;;;;;;5136904;27;20256;-63
2023/05/09 12:07:43;;;;;;;2.85;2.65;;;;;;;;;;5137904;27;20210;-63
2023/05/09 12:10:11;;;;;;;2.90;2.70;;;;;;;;;;5137603;27;20205;-63
2023/05/09 12:12:43;;;;;;;2.65;2.45;;;;;;;;;;5137914;27;20233;-63
2023/05/09 12:15:12;;;;;;;3.05;2.50;;;;;;;;;;5137790;27;20217;-63
2023/05/09 12:17:39;;;;;;;3.40;2.75;;;;;;;;;;5136684;27;20194;-63
2023/05/09 12:20:08;;;;;;;2.30;2.08;;;;;;;;;;5136433;27;20747;-63
2023/05/09 12:22:37;;;;;;;3.55;2.67;;;;;;;;;;5135722;27;20202;-63
2023/05/09 12:25:07;;;;;;;3.38;2.63;;;;;;;;;;5135905;27;20346;-63
2023/05/09 12:27:35;;;;;;;3.40;2.80;;;;;;;;;;5135665;27;20210;-63
2023/05/09 12:30:07;;;;;;;2.95;2.42;;;;;;;;;;5136324;27;20195;-63
2023/05/09 12:32:35;;;;;;;2.95;2.50;;;;;;;;;;5135463;27;20198;-63
2023/05/09 12:35:02;;;;;;;4.40;2.70;;;;;;;;;;5135975;27;20317;-63
2023/05/09 12:37:32;;;;;;;3.17;2.45;;;;;;;;;;5136565;27;20214;-64
2023/05/09 12:40:04;;;;;;;3.42;2.30;;;;;;;;;;5135734;27;20547;-63
2023/05/09 12:42:32;;;;;;;2.65;2.45;;;;;;;;;;5136390;27;20203;-63
2023/05/09 12:45:00;;;;;;;2.70;2.50;;;;;;;;;;5136456;27;20222;-63
2023/05/09 12:47:28;;;;;;;2.72;2.53;;;;;;;;;;5135860;27;20481;-63
2023/05/09 12:49:58;;;;;;;2.55;2.35;;;;;;;;;;5135700;27;20372;-63
2023/05/09 12:52:25;;;;;;;2.53;2.30;;;;;;;;;;5135557;27;20208;-63
2023/05/09 12:54:53;;;;;;;3.45;2.50;;;;;;;;;;5135908;27;20205;-63
2023/05/09 12:57:26;;;;;;;3.47;2.35;;;;;;;;;;5135843;27;20214;-63
2023/05/09 12:59:58;;;;;;;2.53;2.33;;;;;;;;;;5136125;27;20206;-63
2023/05/09 13:02:27;;;;;;;2.90;2.70;;;;;;;;;;5136236;27;20210;-63
2023/05/09 13:05:07;;;;;;;2.72;2.50;;;;;;;;;;5135549;27;20230;-63
2023/05/09 13:07:39;;;;;;;2.90;2.70;;;;;;;;;;5136287;27;20213;-63
2023/05/09 13:10:11;;;;;;;2.70;2.50;;;;;;;;;;5136129;27;20229;-63
2023/05/09 13:12:43;;;;;;;3.58;2.63;;;;;;;;;;5134795;27;20711;-63
2023/05/09 13:15:11;;;;;;;2.70;2.50;;;;;;;;;;5135710;27;20209;-63
2023/05/09 13:17:38;;;;;;;2.60;2.40;;;;;;;;;;5135046;27;20245;-63
2023/05/09 13:20:07;;;;;;;3.00;2.70;;;;;;;;;;5134697;27;20271;-63
2023/05/09 13:22:34;;;;;;;2.53;2.33;;;;;;;;;;5134985;27;20236;-63
2023/05/09 13:25:02;;;;;;;2.70;2.50;;;;;;;;;;5135101;27;20830;-64
2023/05/09 13:27:29;;;;;;;3.25;2.90;;;;;;;;;;5135341;27;20210;-64
2023/05/09 13:29:58;;;;;;;2.80;2.38;;;;;;;;;;5136141;27;20492;-63
2023/05/09 13:32:26;;;;;;;3.45;2.72;;;;;;;;;;5136229;27;20202;-63
2023/05/09 13:34:53;;;;;;;4.10;2.75;;;;;;;;;;5134908;27;20244;-63
2023/05/09 13:37:21;;;;;;;3.47;2.45;;;;;;;;;;5134416;27;20206;-63
2023/05/09 13:39:48;;;;;;;2.80;2.60;;;;;;;;;;5134988;27;20482;-63
2023/05/09 13:42:16;;;;;;;3.80;2.67;;;;;;;;;;5135637;27;20601;-63
2023/05/09 13:44:43;;;;;;;2.60;2.30;;;;;;;;;;5135260;27;20213;-63
2023/05/09 13:47:12;;;;;;;2.60;2.40;;;;;;;;;;5135413;27;20216;-63
2023/05/09 13:49:39;;;;;;;2.72;2.40;;;;;;;;;;5134841;27;20210;-63
2023/05/09 13:52:07;;;;;;;2.83;2.63;;;;;;;;;;5134970;28;20217;-63
2023/05/09 13:54:35;;;;;;;2.60;2.40;;;;;;;;;;5135030;28;20560;-63
2023/05/09 13:57:03;;;;;;;3.80;2.47;;;;;;;;;;5135066;28;20198;-63
2023/05/09 13:59:30;;;;;;;3.63;2.35;;;;;;;;;;5135194;28;20935;-63
2023/05/09 14:01:58;;;;;;;2.70;2.50;;;;;;;;;;5134550;28;20198;-63
2023/05/09 14:04:27;;;;;;;3.78;2.50;;;;;;;;;;5134511;28;20233;-64
2023/05/09 14:06:55;;;;;;;2.78;2.30;;;;;;;;;;5134964;28;20226;-63
2023/05/09 14:09:22;;;;;;;2.42;2.22;;;;;;;;;;5135473;28;20271;-63
2023/05/09 14:11:50;;;;;;;2.65;2.35;;;;;;;;;;5134424;28;20198;-63
2023/05/09 14:14:18;;;;;;;2.58;2.30;;;;;;;;;;5133773;28;20590;-63
2023/05/09 14:16:45;;;;;;;2.97;2.50;;;;;;;;;;5134619;28;20225;-63
2023/05/09 14:19:14;;;;;;;2.60;2.40;;;;;;;;;;5133709;28;20198;-63
2023/05/09 14:21:42;;;;;;;2.88;2.20;;;;;;;;;;5135332;28;20253;-63
2023/05/09 14:24:11;;;;;;;3.50;2.40;;;;;;;;;;5134410;28;20202;-63
2023/05/09 14:26:38;;;;;;;2.55;2.35;;;;;;;;;;5134430;28;20291;-63
2023/05/09 14:29:06;;;;;;;2.60;2.40;;;;;;;;;;5134377;28;20225;-63
2023/05/09 14:31:33;;;;;;;2.40;2.20;;;;;;;;;;5134359;28;20203;-63
2023/05/09 14:34:04;;;;;;;2.50;2.30;;;;;;;;;;5133999;28;20274;-63
2023/05/09 14:36:32;;;;;;;3.08;2.58;;;;;;;;;;5134911;28;20289;-63
2023/05/09 14:39:01;;;;;;;3.72;2.45;;;;;;;;;;5135970;28;20814;-64
2023/05/09 14:41:28;;;;;;;3.00;2.50;;;;;;;;;;5135848;28;20199;-63
2023/05/09 14:43:55;;;;;;;2.72;2.28;;;;;;;;;;5134688;28;20209;-63
2023/05/09 14:46:23;;;;;;;2.95;2.33;;;;;;;;;;5134896;28;20633;-63
2023/05/09 14:48:51;;;;;;;2.40;2.20;;;;;;;;;;5134789;28;20715;-63
2023/05/09 14:51:19;;;;;;;2.40;2.20;;;;;;;;;;5134664;28;20210;-64